createdAt,value
2022-08-26T00:00:16.916Z,21.87
2022-08-26T00:02:45.383Z,21.91
2022-08-26T00:05:13.653Z,22.00
2022-08-26T00:07:42.005Z,22.11
2022-08-26T00:10:12.176Z,22.17
2022-08-26T00:12:40.696Z,22.11
2022-08-26T00:15:12.485Z,22.04
2022-08-26T00:17:42.254Z,22.09
2022-08-26T00:20:11.438Z,22.11
2022-08-26T00:22:39.567Z,22.11
2022-08-26T00:25:09.360Z,22.12
2022-08-26T00:27:38.344Z,22.19
2022-08-26T00:30:11.590Z,22.38
2022-08-26T00:32:41.365Z,22.45
2022-08-26T00:35:13.225Z,22.57
2022-08-26T00:37:43.433Z,22.66
2022-08-26T00:40:16.532Z,22.66
2022-08-26T00:42:45.895Z,22.66
2022-08-26T00:45:15.324Z,22.57
2022-08-26T00:47:49.275Z,22.38
2022-08-26T00:50:23.101Z,22.24
2022-08-26T00:52:52.282Z,22.12
2022-08-26T00:55:23.277Z,22.07
2022-08-26T00:57:53.064Z,22.05
2022-08-26T01:01:15.020Z,22.01
2022-08-26T01:03:49.753Z,21.96
2022-08-26T01:06:20.853Z,21.94
2022-08-26T01:08:49.408Z,22.00
2022-08-26T01:11:17.553Z,22.07
2022-08-26T01:13:47.603Z,22.07
2022-08-26T01:16:17.446Z,22.14
2022-08-26T01:18:47.779Z,22.04
2022-08-26T01:21:22.850Z,21.96
2022-08-26T01:23:57.682Z,21.93
2022-08-26T01:26:29.083Z,21.88
2022-08-26T01:29:00.347Z,21.91
2022-08-26T01:31:31.805Z,21.91
2022-08-26T01:34:06.083Z,21.59
2022-08-26T01:36:34.406Z,21.59
2022-08-26T01:39:05.912Z,21.36
2022-08-26T01:41:36.600Z,21.26
2022-08-26T01:44:07.934Z,21.47
2022-08-26T01:46:38.479Z,21.52
2022-08-26T01:49:09.441Z,21.57
2022-08-26T01:51:40.387Z,21.29
2022-08-26T01:54:11.816Z,21.38
2022-08-26T01:56:40.716Z,21.29
2022-08-26T01:59:12.443Z,21.29
2022-08-26T02:01:42.036Z,21.35
2022-08-26T02:04:17.024Z,21.43
2022-08-26T02:06:46.042Z,21.56
2022-08-26T02:09:16.591Z,21.63
2022-08-26T02:11:45.222Z,21.60
2022-08-26T02:14:17.571Z,21.53
2022-08-26T02:16:47.987Z,21.43
2022-08-26T02:19:21.563Z,21.33
2022-08-26T02:21:52.129Z,21.41
2022-08-26T02:24:23.547Z,21.23
2022-08-26T02:26:52.318Z,21.29
2022-08-26T02:29:25.944Z,21.36
2022-08-26T02:31:55.798Z,21.35
2022-08-26T02:34:31.362Z,21.18
2022-08-26T02:37:00.166Z,21.22
2022-08-26T02:39:29.816Z,21.19
2022-08-26T02:41:58.356Z,21.09
2022-08-26T02:44:27.393Z,21.15
2022-08-26T02:46:56.585Z,21.16
2022-08-26T02:49:25.410Z,21.21
2022-08-26T02:51:54.295Z,21.06
2022-08-26T02:54:22.881Z,21.02
2022-08-26T02:56:52.812Z,20.94
2022-08-26T02:59:24.255Z,20.87
2022-08-26T03:01:56.052Z,20.99
2022-08-26T03:04:25.745Z,21.06
2022-08-26T03:06:55.580Z,21.02
2022-08-26T03:09:24.133Z,20.94
2022-08-26T03:11:55.520Z,20.99
2022-08-26T03:14:24.917Z,21.05
2022-08-26T03:16:54.504Z,21.08
2022-08-26T03:19:24.130Z,21.02
2022-08-26T03:21:53.047Z,20.95
2022-08-26T03:24:26.819Z,20.74
2022-08-26T03:26:56.335Z,20.51
2022-08-26T03:29:43.947Z,20.39
2022-08-26T03:32:21.603Z,20.18
2022-08-26T03:34:49.680Z,19.96
2022-08-26T03:37:17.714Z,19.84
2022-08-26T03:39:46.534Z,19.96
2022-08-26T03:42:16.157Z,20.04
2022-08-26T03:44:44.394Z,20.12
2022-08-26T03:47:12.662Z,19.91
2022-08-26T03:49:41.914Z,20.18
2022-08-26T03:52:10.628Z,20.19
2022-08-26T03:54:38.848Z,20.25
2022-08-26T03:57:08.718Z,20.04
2022-08-26T03:59:38.218Z,20.06
2022-08-26T04:02:11.772Z,20.15
2022-08-26T04:04:40.392Z,20.32
2022-08-26T04:07:08.650Z,20.37
2022-08-26T04:09:36.929Z,20.32
2022-08-26T04:12:05.942Z,20.26
2022-08-26T04:14:35.483Z,20.39
2022-08-26T04:17:07.369Z,20.37
2022-08-26T04:19:36.007Z,20.50
2022-08-26T04:22:04.049Z,20.09
2022-08-26T04:24:33.004Z,20.22
2022-08-26T04:27:02.613Z,20.29
2022-08-26T04:29:31.236Z,20.11
2022-08-26T04:31:59.630Z,20.26
2022-08-26T04:34:29.611Z,19.85
2022-08-26T04:36:58.290Z,20.06
2022-08-26T04:39:27.643Z,20.25
2022-08-26T04:41:57.757Z,20.30
2022-08-26T04:44:28.627Z,20.32
2022-08-26T04:46:57.863Z,20.39
2022-08-26T04:49:26.237Z,20.44
2022-08-26T04:51:57.149Z,20.53
2022-08-26T04:54:26.246Z,20.58
2022-08-26T04:56:54.451Z,20.60
2022-08-26T04:59:22.850Z,20.68
2022-08-26T05:01:56.465Z,20.70
2022-08-26T05:04:24.694Z,20.53
2022-08-26T05:06:56.756Z,20.60
2022-08-26T05:09:29.285Z,20.64
2022-08-26T05:11:58.680Z,20.81
2022-08-26T05:14:26.788Z,20.96
2022-08-26T05:16:55.850Z,21.04
2022-08-26T05:19:24.865Z,21.12
2022-08-26T05:21:56.097Z,21.21
2022-08-26T05:24:24.716Z,21.21
2022-08-26T05:26:54.538Z,21.28
2022-08-26T05:29:25.190Z,21.25
2022-08-26T05:31:53.857Z,21.31
2022-08-26T05:34:24.355Z,21.38
2022-08-26T05:36:58.398Z,21.52
2022-08-26T05:39:26.528Z,21.66
2022-08-26T05:41:55.926Z,21.73
2022-08-26T05:44:24.845Z,21.94
2022-08-26T05:46:53.237Z,22.02
2022-08-26T05:49:22.570Z,22.17
2022-08-26T05:51:54.555Z,22.34
2022-08-26T05:54:22.711Z,22.38
2022-08-26T05:56:51.540Z,22.52
2022-08-26T05:59:23.981Z,22.62
2022-08-26T06:01:53.421Z,22.77
2022-08-26T06:04:22.487Z,22.94
2022-08-26T06:06:55.007Z,23.07
2022-08-26T06:09:23.138Z,23.24
2022-08-26T06:11:51.882Z,23.41
2022-08-26T06:14:23.165Z,23.65
2022-08-26T06:16:51.303Z,23.79
2022-08-26T06:19:20.171Z,23.90
2022-08-26T06:21:54.719Z,23.99
2022-08-26T06:24:40.499Z,24.07
2022-08-26T06:27:11.461Z,24.20
2022-08-26T06:29:42.698Z,24.30
2022-08-26T06:32:10.882Z,24.43
2022-08-26T06:34:39.065Z,24.55
2022-08-26T06:37:07.312Z,24.67
2022-08-26T06:39:35.707Z,24.75
2022-08-26T06:42:09.292Z,24.90
2022-08-26T06:44:40.955Z,24.92
2022-08-26T06:47:11.659Z,24.95
2022-08-26T06:49:41.801Z,25.13
2022-08-26T06:52:14.411Z,25.26
2022-08-26T06:54:48.028Z,25.22
2022-08-26T06:57:18.230Z,25.28
2022-08-26T06:59:46.394Z,25.36
2022-08-26T07:02:16.372Z,25.37
2022-08-26T07:04:47.930Z,25.51
2022-08-26T07:07:16.308Z,25.61
2022-08-26T07:09:44.422Z,25.61
2022-08-26T07:12:12.543Z,25.67
2022-08-26T07:14:41.394Z,25.80
2022-08-26T07:17:20.907Z,25.86
2022-08-26T07:19:53.714Z,25.89
2022-08-26T07:22:21.866Z,25.93
2022-08-26T07:24:50.078Z,25.92
2022-08-26T07:27:18.763Z,26.01
2022-08-26T07:29:49.895Z,26.19
2022-08-26T07:32:22.990Z,26.32
2022-08-26T07:34:53.335Z,26.36
2022-08-26T07:37:21.491Z,26.47
2022-08-26T07:39:52.133Z,26.49
2022-08-26T07:42:23.269Z,26.61
2022-08-26T07:44:52.181Z,26.64
2022-08-26T07:47:24.984Z,26.65
2022-08-26T07:49:57.881Z,26.78
2022-08-26T07:52:28.993Z,26.94
2022-08-26T07:54:58.388Z,26.99
2022-08-26T07:57:26.935Z,27.04
2022-08-26T07:59:55.793Z,27.22
2022-08-26T08:02:26.236Z,27.24
2022-08-26T08:04:56.928Z,27.33
2022-08-26T08:07:38.628Z,27.47
2022-08-26T08:10:16.355Z,27.57
2022-08-26T08:12:44.806Z,27.63
2022-08-26T08:15:21.382Z,27.67
2022-08-26T08:17:51.650Z,27.60
2022-08-26T08:20:25.820Z,27.70
2022-08-26T08:22:55.297Z,27.81
2022-08-26T08:25:25.823Z,27.94
2022-08-26T08:27:54.052Z,28.12
2022-08-26T08:30:23.460Z,28.24
2022-08-26T08:32:51.868Z,28.34
2022-08-26T08:35:22.550Z,28.48
2022-08-26T08:37:54.521Z,28.48
2022-08-26T08:40:25.253Z,28.55
2022-08-26T08:42:58.285Z,28.62
2022-08-26T08:45:36.643Z,28.72
2022-08-26T08:48:11.017Z,28.67
2022-08-26T08:50:44.690Z,28.89
2022-08-26T08:53:19.008Z,29.10
2022-08-26T08:55:59.453Z,29.24
2022-08-26T08:58:36.555Z,29.24
2022-08-26T09:01:09.781Z,29.35
2022-08-26T09:03:52.627Z,29.44
2022-08-26T09:06:21.515Z,29.54
2022-08-26T09:08:56.550Z,29.76
2022-08-26T09:11:24.716Z,29.89
2022-08-26T09:13:55.616Z,29.80
2022-08-26T09:16:34.080Z,29.90
2022-08-26T09:19:14.338Z,30.05
2022-08-26T09:21:42.551Z,30.21
2022-08-26T09:24:13.994Z,30.35
2022-08-26T09:26:48.470Z,30.37
2022-08-26T09:29:24.541Z,30.31
2022-08-26T09:32:16.102Z,30.33
2022-08-26T09:34:58.077Z,30.47
2022-08-26T09:37:36.697Z,30.52
2022-08-26T09:40:22.606Z,30.10
2022-08-26T09:43:08.836Z,30.75
2022-08-26T09:45:38.805Z,31.10
2022-08-26T09:48:09.055Z,31.34
2022-08-26T09:50:53.205Z,31.25
2022-08-26T09:53:28.819Z,31.16
2022-08-26T09:56:19.786Z,31.38
2022-08-26T09:58:49.322Z,31.48
2022-08-26T10:01:33.314Z,31.61
2022-08-26T10:04:07.770Z,31.71
2022-08-26T10:06:40.027Z,31.36
2022-08-26T10:09:14.605Z,31.13
2022-08-26T10:11:49.683Z,30.99
2022-08-26T10:14:25.105Z,31.64
2022-08-26T10:17:03.410Z,31.75
2022-08-26T10:19:41.333Z,31.89
2022-08-26T10:22:19.809Z,32.29
2022-08-26T10:24:54.942Z,32.22
2022-08-26T10:27:31.596Z,32.59
2022-08-26T10:30:11.209Z,32.98
2022-08-26T10:32:42.692Z,32.74
2022-08-26T10:35:18.344Z,32.70
2022-08-26T10:38:14.526Z,32.61
2022-08-26T10:40:55.213Z,32.70
2022-08-26T10:43:33.347Z,33.00
2022-08-26T10:46:07.478Z,33.48
2022-08-26T10:48:42.828Z,32.86
2022-08-26T10:51:14.674Z,32.76
2022-08-26T10:53:55.935Z,33.22
2022-08-26T10:56:44.819Z,33.41
2022-08-26T10:59:28.948Z,32.68
2022-08-26T11:02:10.297Z,32.83
2022-08-26T11:04:48.442Z,33.01
2022-08-26T11:07:43.766Z,33.33
2022-08-26T11:11:04.189Z,33.80
2022-08-26T11:14:05.654Z,33.31
2022-08-26T11:16:43.331Z,33.58
2022-08-26T11:19:13.533Z,33.85
2022-08-26T11:21:51.110Z,33.87
2022-08-26T11:25:01.615Z,33.73
2022-08-26T11:28:04.438Z,33.68
2022-08-26T11:30:58.302Z,33.89
2022-08-26T11:33:59.881Z,33.73
2022-08-26T11:36:42.114Z,33.72
2022-08-26T11:39:20.451Z,34.13
2022-08-26T11:41:53.614Z,34.07
2022-08-26T11:44:24.182Z,34.38
2022-08-26T11:47:03.588Z,34.48
2022-08-26T11:49:35.042Z,34.40
2022-08-26T11:52:12.240Z,34.38
2022-08-26T11:54:40.863Z,34.71
2022-08-26T11:57:14.723Z,34.35
2022-08-26T11:59:43.570Z,34.16
2022-08-26T12:02:17.947Z,34.10
2022-08-26T12:04:53.040Z,33.97
2022-08-26T12:07:27.133Z,34.08
2022-08-26T12:10:00.439Z,34.48
2022-08-26T12:12:35.272Z,34.55
2022-08-26T12:15:17.489Z,34.86
2022-08-26T12:17:52.962Z,35.19
2022-08-26T12:20:46.116Z,35.00
2022-08-26T12:23:41.415Z,33.97
2022-08-26T12:26:41.356Z,34.54
2022-08-26T12:29:27.227Z,34.69
2022-08-26T12:32:09.134Z,34.69
2022-08-26T12:34:43.124Z,35.03
2022-08-26T12:37:15.442Z,34.88
2022-08-26T12:39:46.421Z,35.38
2022-08-26T12:42:41.403Z,35.43
2022-08-26T12:45:10.032Z,34.99
2022-08-26T12:47:42.978Z,35.09
2022-08-26T12:50:19.540Z,35.10
2022-08-26T12:53:00.165Z,35.10
2022-08-26T12:55:43.965Z,35.06
2022-08-26T12:58:24.743Z,34.82
2022-08-26T13:00:57.014Z,34.43
2022-08-26T13:03:32.563Z,34.76
2022-08-26T13:06:28.104Z,34.81
2022-08-26T13:08:59.856Z,34.68
2022-08-26T13:11:29.864Z,34.86
2022-08-26T13:14:02.351Z,35.26
2022-08-26T13:16:40.840Z,35.70
2022-08-26T13:19:11.559Z,35.16
2022-08-26T13:21:45.010Z,35.30
2022-08-26T13:24:17.723Z,34.55
2022-08-26T13:26:49.167Z,34.89
2022-08-26T13:29:18.057Z,35.17
2022-08-26T13:32:01.969Z,35.43
2022-08-26T13:34:32.253Z,35.37
2022-08-26T13:37:01.509Z,35.46
2022-08-26T13:39:30.066Z,35.54
2022-08-26T13:41:58.481Z,35.75
2022-08-26T13:44:26.999Z,35.71
2022-08-26T13:46:55.891Z,35.70
2022-08-26T13:49:25.855Z,35.62
2022-08-26T13:51:54.575Z,35.75
2022-08-26T13:54:26.840Z,35.54
2022-08-26T13:56:56.486Z,35.70
2022-08-26T13:59:27.281Z,36.05
2022-08-26T14:01:55.731Z,35.57
2022-08-26T14:04:27.245Z,34.93
2022-08-26T14:06:55.847Z,35.50
2022-08-26T14:09:27.275Z,35.61
2022-08-26T14:12:00.977Z,35.58
2022-08-26T14:14:35.983Z,35.58
2022-08-26T14:17:04.471Z,35.71
2022-08-26T14:19:37.597Z,35.48
2022-08-26T14:22:06.301Z,35.27
2022-08-26T14:24:38.223Z,35.40
2022-08-26T14:27:07.242Z,35.77
2022-08-26T14:29:35.468Z,35.85
2022-08-26T14:32:15.583Z,36.62
2022-08-26T14:34:45.458Z,36.18
2022-08-26T14:37:15.400Z,35.62
2022-08-26T14:39:46.014Z,35.10
2022-08-26T14:42:21.082Z,34.76
2022-08-26T14:44:55.943Z,34.76
2022-08-26T14:47:24.567Z,34.85
2022-08-26T14:49:54.311Z,34.86
2022-08-26T14:52:22.656Z,34.48
2022-08-26T14:54:54.887Z,34.45
2022-08-26T14:57:24.924Z,34.73
2022-08-26T14:59:53.938Z,35.11
2022-08-26T15:02:33.249Z,35.80
2022-08-26T15:05:04.260Z,35.61
2022-08-26T15:07:33.072Z,35.65
2022-08-26T15:10:01.317Z,35.30
2022-08-26T15:12:31.507Z,35.09
2022-08-26T15:15:00.443Z,34.51
2022-08-26T15:17:33.675Z,34.45
2022-08-26T15:20:08.223Z,34.17
2022-08-26T15:22:42.494Z,34.00
2022-08-26T15:25:14.220Z,33.81
2022-08-26T15:27:42.701Z,33.65
2022-08-26T15:30:14.101Z,33.36
2022-08-26T15:32:43.910Z,32.77
2022-08-26T15:35:14.457Z,33.22
2022-08-26T15:37:42.948Z,33.32
2022-08-26T15:40:22.062Z,33.26
2022-08-26T15:43:01.187Z,32.80
2022-08-26T15:45:39.746Z,32.76
2022-08-26T15:48:07.906Z,32.84
2022-08-26T15:50:49.953Z,33.05
2022-08-26T15:53:18.269Z,32.95
2022-08-26T15:55:46.644Z,32.92
2022-08-26T15:58:16.967Z,32.83
2022-08-26T16:00:46.713Z,32.64
2022-08-26T16:03:21.181Z,32.70
2022-08-26T16:05:50.809Z,32.87
2022-08-26T16:08:20.335Z,32.94
2022-08-26T16:10:51.547Z,32.57
2022-08-26T16:13:22.217Z,32.66
2022-08-26T16:15:54.886Z,32.74
2022-08-26T16:18:24.553Z,32.87
2022-08-26T16:21:12.644Z,32.83
2022-08-26T16:23:45.358Z,32.63
2022-08-26T16:26:19.597Z,32.49
2022-08-26T16:28:49.765Z,32.28
2022-08-26T16:31:18.560Z,32.02
2022-08-26T16:33:47.413Z,31.77
2022-08-26T16:36:18.003Z,31.51
2022-08-26T16:38:50.344Z,31.38
2022-08-26T16:41:20.070Z,31.19
2022-08-26T16:43:48.981Z,31.13
2022-08-26T16:46:19.172Z,31.15
2022-08-26T16:48:48.950Z,31.12
2022-08-26T16:51:23.116Z,31.12
2022-08-26T16:53:57.841Z,31.09
2022-08-26T16:56:34.038Z,30.98
2022-08-26T16:59:03.505Z,30.89
2022-08-26T17:01:33.474Z,30.75
2022-08-26T17:04:01.824Z,30.68
2022-08-26T17:06:31.823Z,30.52
2022-08-26T17:09:00.186Z,30.47
2022-08-26T17:11:28.705Z,30.23
2022-08-26T17:13:57.208Z,29.97
2022-08-26T17:16:27.123Z,29.92
2022-08-26T17:18:57.430Z,29.80
2022-08-26T17:21:26.999Z,29.80
2022-08-26T17:23:56.699Z,29.78
2022-08-26T17:26:24.847Z,29.80
2022-08-26T17:28:53.075Z,29.83
2022-08-26T17:31:22.058Z,29.72
2022-08-26T17:33:53.886Z,29.73
2022-08-26T17:36:27.794Z,29.61
2022-08-26T17:39:00.218Z,29.48
2022-08-26T17:41:30.111Z,29.49
2022-08-26T17:43:58.562Z,29.32
2022-08-26T17:46:26.997Z,29.32
2022-08-26T17:48:55.473Z,28.90
2022-08-26T17:51:25.706Z,28.89
2022-08-26T17:53:54.276Z,28.93
2022-08-26T17:56:26.815Z,28.51
2022-08-26T17:58:57.025Z,28.72
2022-08-26T18:01:27.654Z,28.17
2022-08-26T18:04:00.373Z,27.96
2022-08-26T18:06:30.531Z,27.73
2022-08-26T18:09:00.625Z,27.59
2022-08-26T18:11:31.312Z,27.56
2022-08-26T18:14:00.389Z,27.84
2022-08-26T18:16:32.015Z,28.09
2022-08-26T18:19:01.140Z,27.53
2022-08-26T18:21:29.412Z,27.49
2022-08-26T18:23:59.183Z,27.67
2022-08-26T18:26:31.233Z,27.29
2022-08-26T18:28:59.931Z,27.11
2022-08-26T18:31:33.553Z,27.08
2022-08-26T18:34:03.099Z,27.18
2022-08-26T18:36:33.843Z,27.02
2022-08-26T18:39:02.796Z,26.88
2022-08-26T18:41:34.827Z,26.81
2022-08-26T18:44:03.595Z,26.68
2022-08-26T18:46:31.962Z,26.61
2022-08-26T18:49:00.257Z,26.63
2022-08-26T18:51:35.325Z,26.60
2022-08-26T18:54:05.931Z,26.63
2022-08-26T18:56:37.634Z,26.77
2022-08-26T18:59:08.856Z,26.74
2022-08-26T19:01:40.875Z,26.83
2022-08-26T19:04:15.626Z,26.95
2022-08-26T19:06:46.385Z,27.11
2022-08-26T19:09:15.326Z,26.65
2022-08-26T19:11:49.815Z,26.39
2022-08-26T19:14:18.591Z,26.35
2022-08-26T19:16:48.654Z,26.06
2022-08-26T19:19:18.037Z,25.96
2022-08-26T19:21:47.422Z,26.28
2022-08-26T19:24:18.079Z,26.43
2022-08-26T19:26:50.385Z,26.29
2022-08-26T19:29:27.617Z,26.33
2022-08-26T19:31:56.851Z,26.26
2022-08-26T19:34:25.225Z,26.13
2022-08-26T19:36:55.139Z,25.67
2022-08-26T19:39:23.923Z,25.51
2022-08-26T19:41:54.067Z,25.15
2022-08-26T19:44:42.111Z,25.05
2022-08-26T19:47:14.812Z,24.95
2022-08-26T19:49:43.474Z,25.09
2022-08-26T19:52:14.326Z,24.99
2022-08-26T19:54:42.903Z,24.88
2022-08-26T19:57:12.800Z,24.93
2022-08-26T19:59:43.933Z,25.03
2022-08-26T20:02:13.129Z,25.12
2022-08-26T20:04:42.378Z,25.10
2022-08-26T20:07:14.252Z,25.15
2022-08-26T20:09:46.879Z,25.22
2022-08-26T20:12:17.754Z,25.09
2022-08-26T20:14:50.312Z,25.06
2022-08-26T20:17:18.938Z,25.08
2022-08-26T20:20:05.059Z,25.00
2022-08-26T20:22:34.504Z,25.08
2022-08-26T20:25:03.186Z,24.81
2022-08-26T20:27:38.302Z,24.51
2022-08-26T20:30:09.561Z,24.60
2022-08-26T20:32:38.543Z,24.58
2022-08-26T20:35:08.866Z,24.52
2022-08-26T20:37:38.159Z,24.58
2022-08-26T20:40:08.685Z,24.60
2022-08-26T20:42:38.724Z,24.78
2022-08-26T20:45:08.759Z,24.81
2022-08-26T20:47:37.078Z,24.79
2022-08-26T20:50:06.342Z,24.86
2022-08-26T20:52:34.851Z,24.99
2022-08-26T20:55:03.105Z,24.90
2022-08-26T20:57:31.403Z,24.86
2022-08-26T21:00:01.196Z,24.73
2022-08-26T21:02:29.581Z,24.58
2022-08-26T21:04:57.854Z,24.61
2022-08-26T21:07:26.549Z,24.68
2022-08-26T21:09:54.732Z,24.65
2022-08-26T21:12:25.161Z,24.51
2022-08-26T21:14:53.573Z,24.38
2022-08-26T21:17:23.177Z,24.37
2022-08-26T21:19:51.639Z,24.09
2022-08-26T21:22:19.880Z,24.09
2022-08-26T21:24:48.397Z,23.87
2022-08-26T21:27:23.040Z,23.99
2022-08-26T21:29:54.828Z,24.02
2022-08-26T21:32:24.414Z,23.55
2022-08-26T21:34:56.487Z,23.52
2022-08-26T21:37:25.854Z,23.68
2022-08-26T21:39:54.777Z,23.69
2022-08-26T21:42:24.375Z,23.62
2022-08-26T21:44:53.521Z,23.69
2022-08-26T21:47:22.133Z,23.42
2022-08-26T21:49:52.202Z,23.47
2022-08-26T21:52:21.381Z,23.59
2022-08-26T21:54:49.986Z,23.68
2022-08-26T21:57:18.750Z,23.77
2022-08-26T21:59:47.245Z,23.80
2022-08-26T22:02:15.943Z,23.57
2022-08-26T22:04:48.208Z,23.31
2022-08-26T22:07:19.436Z,23.38
2022-08-26T22:09:47.906Z,23.52
2022-08-26T22:12:18.419Z,23.54
2022-08-26T22:14:48.252Z,23.24
2022-08-26T22:17:17.155Z,23.45
2022-08-26T22:19:46.095Z,23.51
2022-08-26T22:22:16.069Z,23.38
2022-08-26T22:24:45.751Z,23.31
2022-08-26T22:27:14.923Z,23.24
2022-08-26T22:29:43.231Z,23.07
2022-08-26T22:32:13.785Z,23.04
2022-08-26T22:34:43.139Z,22.97
2022-08-26T22:37:11.625Z,23.17
2022-08-26T22:39:39.907Z,23.24
2022-08-26T22:42:09.826Z,23.30
2022-08-26T22:44:38.216Z,23.30
2022-08-26T22:47:06.802Z,23.21
2022-08-26T22:49:35.102Z,23.21
2022-08-26T22:52:03.631Z,23.22
2022-08-26T22:54:31.901Z,23.27
2022-08-26T22:57:00.183Z,22.93
2022-08-26T22:59:29.920Z,22.79
2022-08-26T23:01:58.137Z,22.62
2022-08-26T23:04:26.408Z,22.57
2022-08-26T23:06:54.622Z,22.82
2022-08-26T23:09:22.907Z,22.38
2022-08-26T23:11:51.116Z,22.48
2022-08-26T23:14:20.423Z,22.28
2022-08-26T23:16:50.551Z,21.98
2022-08-26T23:19:20.971Z,22.00
2022-08-26T23:21:50.222Z,22.07
2022-08-26T23:24:19.091Z,22.31
2022-08-26T23:26:47.550Z,22.48
2022-08-26T23:29:16.521Z,22.36
2022-08-26T23:31:46.885Z,22.32
2022-08-26T23:34:33.865Z,22.28
2022-08-26T23:37:02.666Z,21.94
2022-08-26T23:39:34.060Z,21.86
2022-08-26T23:42:03.056Z,21.67
2022-08-26T23:44:31.826Z,21.43
2022-08-26T23:47:00.457Z,21.46
2022-08-26T23:49:30.523Z,21.67
2022-08-26T23:52:16.390Z,21.73
2022-08-26T23:54:44.646Z,21.80
2022-08-26T23:57:12.865Z,21.86
2022-08-26T23:59:41.388Z,21.88
